Normalwerte entsprechend der Tabelle des DWD von 1961-1990 fr den Standort Annaberg-Buchholz, 650m ASL
Wetterdaten: aktuell Sonntag, 16.06.2019 05:30
Datum Zeit Temp. A. Feuchte A. Luftdruck Regen Wind Richtung Richtung Taupunkt Windchill Windben
16.06.2019 05:30 14,4 C 87 % 1015,6 hPa 0,0 l/m 0,0 km/h (0 Bft) NW 307 12,3 C 14,4 C 0,0 km/h (0 Bft)
16.06.2019 05:25 14,4 C 87 % 1015,5 hPa 0,0 l/m 0,0 km/h (0 Bft) NW 307 12,3 C 14,4 C 0,0 km/h (0 Bft)
16.06.2019 05:20 14,4 C 87 % 1015,5 hPa 0,0 l/m 0,0 km/h (0 Bft) NW 307 12,3 C 14,4 C 1,6 km/h (1 Bft)
16.06.2019 05:15 14,3 C 87 % 1015,6 hPa 0,0 l/m 0,5 km/h (0 Bft) NW 307 12,2 C 14,3 C 3,2 km/h (1 Bft)
16.06.2019 05:10 14,4 C 87 % 1015,4 hPa 0,0 l/m 2,0 km/h (1 Bft) NW 314 12,3 C 14,4 C 4,8 km/h (1 Bft)
16.06.2019 05:05 14,5 C 87 % 1015,4 hPa 0,0 l/m 1,5 km/h (1 Bft) W-NW 302 12,4 C 14,5 C 4,8 km/h (1 Bft)
16.06.2019 05:00 14,6 C 87 % 1015,4 hPa 0,0 l/m 0,0 km/h (0 Bft) W 278 12,5 C 14,6 C 1,6 km/h (1 Bft)
16.06.2019 04:55 14,6 C 86 % 1015,4 hPa 0,0 l/m 0,7 km/h (0 Bft) W 278 12,3 C 14,6 C 3,2 km/h (1 Bft)
16.06.2019 04:50 14,7 C 86 % 1015,4 hPa 0,0 l/m 1,0 km/h (0 Bft) W 278 12,4 C 14,7 C 4,8 km/h (1 Bft)
16.06.2019 04:45 14,7 C 86 % 1015,4 hPa 0,0 l/m 2,2 km/h (1 Bft) W-NW 290 12,4 C 14,7 C 6,4 km/h (2 Bft)
16.06.2019 04:40 14,8 C 86 % 1015,3 hPa 0,0 l/m 2,4 km/h (1 Bft) W-NW 288 12,5 C 14,8 C 4,8 km/h (1 Bft)
16.06.2019 04:35 14,9 C 86 % 1015,2 hPa 0,0 l/m 0,6 km/h (0 Bft) W-NW 289 12,6 C 14,9 C 3,2 km/h (1 Bft)
16.06.2019 04:30 14,9 C 86 % 1015,2 hPa 0,0 l/m 1,6 km/h (1 Bft) W-NW 289 12,6 C 14,9 C 4,8 km/h (1 Bft)
16.06.2019 04:25 15,0 C 86 % 1015,1 hPa 0,0 l/m 2,7 km/h (1 Bft) W-NW 303 12,7 C 15,0 C 6,4 km/h (2 Bft)
16.06.2019 04:20 15,1 C 86 % 1015,0 hPa 0,0 l/m 0,0 km/h (0 Bft) W-NW 296 12,8 C 15,1 C 0,0 km/h (0 Bft)
16.06.2019 04:15 15,2 C 86 % 1014,9 hPa 0,0 l/m 0,3 km/h (0 Bft) W-NW 296 12,9 C 15,2 C 3,2 km/h (1 Bft)
16.06.2019 04:10 15,2 C 86 % 1015,1 hPa 0,0 l/m 0,0 km/h (0 Bft) W-NW 298 12,9 C 15,2 C 0,0 km/h (0 Bft)
16.06.2019 04:05 15,3 C 86 % 1015,2 hPa 0,0 l/m 1,5 km/h (1 Bft) W 277 13,0 C 15,3 C 6,4 km/h (2 Bft)
16.06.2019 04:00 15,3 C 86 % 1015,1 hPa 0,0 l/m 1,9 km/h (1 Bft) W 273 13,0 C 15,3 C 4,8 km/h (1 Bft)
16.06.2019 03:55 15,3 C 86 % 1015,1 hPa 0,0 l/m 1,9 km/h (1 Bft) W-NW 290 13,0 C 15,3 C 4,8 km/h (1 Bft)
16.06.2019 03:50 15,3 C 86 % 1015,1 hPa 0,0 l/m 0,3 km/h (0 Bft) W-NW 296 13,0 C 15,3 C 3,2 km/h (1 Bft)
16.06.2019 03:45 15,3 C 86 % 1015,2 hPa 0,0 l/m 3,1 km/h (1 Bft) NW 309 13,0 C 15,3 C 6,4 km/h (2 Bft)
16.06.2019 03:40 15,3 C 86 % 1015,2 hPa 0,0 l/m 3,1 km/h (1 Bft) NW 309 13,0 C 15,3 C 4,8 km/h (1 Bft)
16.06.2019 03:35 15,3 C 86 % 1015,2 hPa 0,0 l/m 3,2 km/h (1 Bft) W-NW 303 13,0 C 15,3 C 8,0 km/h (2 Bft)
16.06.2019 03:30 15,3 C 86 % 1015,3 hPa 0,0 l/m 1,9 km/h (1 Bft) NW 318 13,0 C 15,3 C 8,0 km/h (2 Bft)
16.06.2019 03:25 15,4 C 87 % 1015,0 hPa 0,0 l/m 0,0 km/h (0 Bft) NW 309 13,2 C 15,4 C 0,0 km/h (0 Bft)
16.06.2019 03:20 15,6 C 87 % 1015,0 hPa 0,0 l/m 0,0 km/h (0 Bft) NW 309 13,4 C 15,6 C 1,6 km/h (1 Bft)
16.06.2019 03:15 15,6 C 86 % 1015,1 hPa 0,0 l/m 0,7 km/h (0 Bft) NW 309 13,3 C 15,6 C 4,8 km/h (1 Bft)
16.06.2019 03:10 15,7 C 85 % 1015,1 hPa 0,0 l/m 0,0 km/h (0 Bft) NW 309 13,2 C 15,7 C 0,0 km/h (0 Bft)
16.06.2019 03:05 15,7 C 85 % 1015,3 hPa 0,0 l/m 0,0 km/h (0 Bft) NW 309 13,2 C 15,7 C 0,0 km/h (0 Bft)
16.06.2019 03:00 15,7 C 86 % 1015,2 hPa 0,0 l/m 2,5 km/h (1 Bft) NW 309 13,4 C 15,7 C 4,8 km/h (1 Bft)
16.06.2019 02:55 15,7 C 85 % 1015,2 hPa 0,0 l/m 1,9 km/h (1 Bft) NW 313 13,2 C 15,7 C 6,4 km/h (2 Bft)
16.06.2019 02:50 15,7 C 86 % 1015,1 hPa 0,0 l/m 0,0 km/h (0 Bft) NW 319 13,4 C 15,7 C 0,0 km/h (0 Bft)
16.06.2019 02:45 15,7 C 85 % 1015,0 hPa 0,0 l/m 0,0 km/h (0 Bft) NW 323 13,2 C 15,7 C 0,0 km/h (0 Bft)
16.06.2019 02:40 15,8 C 85 % 1015,1 hPa 0,0 l/m 0,0 km/h (0 Bft) NW 324 13,3 C 15,8 C 0,0 km/h (0 Bft)
16.06.2019 02:36 15,8 C 85 % 1015,0 hPa 0,0 l/m 0,1 km/h (0 Bft) NW 324 13,3 C 15,8 C 1,6 km/h (1 Bft)
16.06.2019 02:30 15,9 C 85 % 1015,0 hPa 0,0 l/m 0,2 km/h (0 Bft) NW 324 13,4 C 15,9 C 3,2 km/h (1 Bft)
16.06.2019 02:25 15,9 C 85 % 1015,0 hPa 0,0 l/m 1,6 km/h (1 Bft) NW 324 13,4 C 15,9 C 4,8 km/h (1 Bft)
16.06.2019 02:20 15,9 C 85 % 1014,9 hPa 0,0 l/m 0,4 km/h (0 Bft) N-NW 331 13,4 C 15,9 C 4,8 km/h (1 Bft)
16.06.2019 02:15 15,9 C 85 % 1014,9 hPa 0,0 l/m 1,1 km/h (1 Bft) W-NW 300 13,4 C 15,9 C 3,2 km/h (1 Bft)
16.06.2019 02:10 16,0 C 85 % 1014,8 hPa 0,0 l/m 1,2 km/h (1 Bft) W-NW 300 13,5 C 16,0 C 3,2 km/h (1 Bft)
16.06.2019 02:05 16,1 C 85 % 1014,8 hPa 0,0 l/m 1,7 km/h (1 Bft) W-NW 300 13,6 C 16,1 C 4,8 km/h (1 Bft)
16.06.2019 02:00 16,2 C 85 % 1014,7 hPa 0,0 l/m 2,9 km/h (1 Bft) N-NW 346 13,7 C 16,2 C 6,4 km/h (2 Bft)
16.06.2019 01:55 16,3 C 85 % 1014,6 hPa 0,0 l/m 2,9 km/h (1 Bft) N 360 13,8 C 16,3 C 8,0 km/h (2 Bft)
16.06.2019 01:50 16,3 C 84 % 1014,7 hPa 0,0 l/m 3,0 km/h (1 Bft) NO 35 13,6 C 16,3 C 6,4 km/h (2 Bft)
16.06.2019 01:45 16,4 C 84 % 1014,7 hPa 0,0 l/m 5,2 km/h (1 Bft) N 5 13,7 C 16,4 C 9,7 km/h (2 Bft)
16.06.2019 01:40 16,4 C 84 % 1014,7 hPa 0,0 l/m 4,2 km/h (1 Bft) N-NO 24 13,7 C 16,4 C 9,7 km/h (2 Bft)
16.06.2019 01:36 16,6 C 85 % 1014,6 hPa 0,0 l/m 4,9 km/h (1 Bft) N-NW 340 14,1 C 16,6 C 12,9 km/h (3 Bft)
16.06.2019 01:30 16,7 C 85 % 1014,6 hPa 0,0 l/m 3,4 km/h (1 Bft) N 355 14,2 C 16,7 C 6,4 km/h (2 Bft)
16.06.2019 01:25 16,8 C 84 % 1014,6 hPa 0,0 l/m 1,7 km/h (1 Bft) NW 323 14,1 C 16,8 C 4,8 km/h (1 Bft)
16.06.2019 01:20 16,8 C 83 % 1014,5 hPa 0,0 l/m 1,4 km/h (1 Bft) NW 315 13,9 C 16,8 C 3,2 km/h (1 Bft)
16.06.2019 01:15 16,8 C 83 % 1014,5 hPa 0,0 l/m 2,5 km/h (1 Bft) NW 306 13,9 C 16,8 C 4,8 km/h (1 Bft)
16.06.2019 01:10 16,8 C 82 % 1014,6 hPa 0,0 l/m 0,9 km/h (0 Bft) NW 306 13,7 C 16,8 C 3,2 km/h (1 Bft)
16.06.2019 01:05 16,9 C 82 % 1014,5 hPa 0,0 l/m 2,0 km/h (1 Bft) NW 306 13,8 C 16,9 C 4,8 km/h (1 Bft)
16.06.2019 01:00 17,0 C 82 % 1014,5 hPa 0,0 l/m 1,8 km/h (1 Bft) NW 306 13,9 C 17,0 C 6,4 km/h (2 Bft)
16.06.2019 00:55 17,1 C 81 % 1014,5 hPa 0,0 l/m 0,0 km/h (0 Bft) NW 306 13,8 C 17,1 C 0,0 km/h (0 Bft)
16.06.2019 00:50 17,2 C 80 % 1014,5 hPa 0,0 l/m 0,3 km/h (0 Bft) NW 306 13,7 C 17,2 C 1,6 km/h (1 Bft)
16.06.2019 00:45 17,3 C 79 % 1014,5 hPa 0,0 l/m 1,4 km/h (1 Bft) NW 306 13,6 C 17,3 C 6,4 km/h (2 Bft)
16.06.2019 00:40 17,3 C 79 % 1014,5 hPa 0,0 l/m 0,6 km/h (0 Bft) NW 313 13,6 C 17,3 C 3,2 km/h (1 Bft)
16.06.2019 00:35 17,3 C 78 % 1014,6 hPa 0,0 l/m 1,1 km/h (1 Bft) NW 313 13,4 C 17,3 C 3,2 km/h (1 Bft)
16.06.2019 00:30 17,4 C 78 % 1014,5 hPa 0,0 l/m 3,1 km/h (1 Bft) NW 312 13,5 C 17,4 C 6,4 km/h (2 Bft)
16.06.2019 00:25 17,6 C 77 % 1014,5 hPa 0,0 l/m 2,1 km/h (1 Bft) W-NW 296 13,5 C 17,6 C 4,8 km/h (1 Bft)
16.06.2019 00:20 17,7 C 76 % 1014,3 hPa 0,0 l/m 2,8 km/h (1 Bft) W-NW 296 13,4 C 17,7 C 6,4 km/h (2 Bft)
16.06.2019 00:15 17,8 C 76 % 1014,2 hPa 0,0 l/m 1,4 km/h (1 Bft) N-NW 327 13,5 C 17,8 C 6,4 km/h (2 Bft)
16.06.2019 00:10 17,9 C 76 % 1014,3 hPa 0,0 l/m 1,4 km/h (1 Bft) W-NW 300 13,6 C 17,9 C 6,4 km/h (2 Bft)
16.06.2019 00:05 18,0 C 75 % 1014,5 hPa 0,0 l/m 0,5 km/h (0 Bft) W-NW 298 13,5 C 18,0 C 4,8 km/h (1 Bft)
16.06.2019 00:00 18,1 C 75 % 1014,4 hPa 0,0 l/m 2,7 km/h (1 Bft) NW 304 13,6 C 18,1 C 6,4 km/h (2 Bft)
15.06.2019 23:55 18,1 C 75 % 1014,5 hPa 0,0 l/m 3,5 km/h (1 Bft) W-NW 299 13,6 C 18,1 C 8,0 km/h (2 Bft)
15.06.2019 23:50 18,2 C 74 % 1014,5 hPa 0,0 l/m 3,7 km/h (1 Bft) W-NW 288 13,5 C 18,2 C 6,4 km/h (2 Bft)
15.06.2019 23:45 18,2 C 74 % 1014,5 hPa 0,0 l/m 2,9 km/h (1 Bft) W-NW 296 13,5 C 18,2 C 8,0 km/h (2 Bft)
15.06.2019 23:40 18,2 C 74 % 1014,4 hPa 0,0 l/m 3,4 km/h (1 Bft) W-NW 293 13,5 C 18,2 C 11,3 km/h (2 Bft)
15.06.2019 23:35 18,2 C 75 % 1014,4 hPa 0,0 l/m 2,7 km/h (1 Bft) W-SW 251 13,7 C 18,2 C 9,7 km/h (2 Bft)
15.06.2019 23:30 18,2 C 76 % 1014,2 hPa 0,0 l/m 2,4 km/h (1 Bft) W-NW 298 13,9 C 18,2 C 11,3 km/h (2 Bft)
15.06.2019 23:25 18,3 C 75 % 1014,1 hPa 0,0 l/m 2,0 km/h (1 Bft) W-NW 294 13,8 C 18,3 C 6,4 km/h (2 Bft)
15.06.2019 23:20 18,4 C 74 % 1014,1 hPa 0,0 l/m 0,0 km/h (0 Bft) W-NW 286 13,7 C 18,4 C 0,0 km/h (0 Bft)
15.06.2019 23:15 18,4 C 73 % 1013,8 hPa 0,0 l/m 0,4 km/h (0 Bft) W-NW 286 13,5 C 18,4 C 3,2 km/h (1 Bft)
15.06.2019 23:10 18,4 C 73 % 1013,6 hPa 0,0 l/m 2,2 km/h (1 Bft) W-NW 286 13,5 C 18,4 C 6,4 km/h (2 Bft)
15.06.2019 23:05 18,5 C 72 % 1013,5 hPa 0,0 l/m 4,3 km/h (1 Bft) W 261 13,4 C 18,5 C 12,9 km/h (3 Bft)
15.06.2019 23:00 18,5 C 73 % 1013,4 hPa 0,0 l/m 5,5 km/h (2 Bft) W-NW 285 13,6 C 18,5 C 16,1 km/h (3 Bft)
15.06.2019 22:55 18,5 C 73 % 1013,3 hPa 0,0 l/m 6,0 km/h (2 Bft) NW 309 13,6 C 18,5 C 12,9 km/h (3 Bft)
15.06.2019 22:50 18,4 C 73 % 1013,2 hPa 0,0 l/m 3,8 km/h (1 Bft) W-NW 282 13,5 C 18,4 C 12,9 km/h (3 Bft)
15.06.2019 22:45 18,5 C 74 % 1013,1 hPa 0,0 l/m 4,3 km/h (1 Bft) W-NW 285 13,8 C 18,5 C 11,3 km/h (2 Bft)
15.06.2019 22:40 18,5 C 74 % 1013,0 hPa 0,0 l/m 4,6 km/h (1 Bft) NW 308 13,8 C 18,5 C 16,1 km/h (3 Bft)
15.06.2019 22:35 18,4 C 75 % 1013,2 hPa 0,0 l/m 3,8 km/h (1 Bft) W-NW 293 13,9 C 18,4 C 9,7 km/h (2 Bft)
15.06.2019 22:30 18,3 C 75 % 1013,1 hPa 0,0 l/m 4,3 km/h (1 Bft) NW 306 13,8 C 18,3 C 12,9 km/h (3 Bft)
15.06.2019 22:25 17,9 C 76 % 1013,1 hPa 0,0 l/m 8,3 km/h (2 Bft) NW 305 13,6 C 17,0 C 14,5 km/h (3 Bft)
15.06.2019 22:20 17,2 C 79 % 1013,1 hPa 0,0 l/m 4,4 km/h (1 Bft) W-NW 302 13,5 C 17,2 C 17,7 km/h (3 Bft)
15.06.2019 22:15 16,7 C 83 % 1013,1 hPa 0,0 l/m 1,1 km/h (1 Bft) W-NW 286 13,8 C 16,7 C 6,4 km/h (2 Bft)
15.06.2019 22:10 16,6 C 83 % 1013,2 hPa 0,0 l/m 0,0 km/h (0 Bft) W-NW 286 13,7 C 16,6 C 0,0 km/h (0 Bft)
15.06.2019 22:05 16,6 C 83 % 1013,1 hPa 0,0 l/m 0,0 km/h (0 Bft) W-NW 286 13,7 C 16,6 C 0,0 km/h (0 Bft)
15.06.2019 22:00 16,7 C 83 % 1013,0 hPa 0,0 l/m 0,0 km/h (0 Bft) W-NW 286 13,8 C 16,7 C 0,0 km/h (0 Bft)
15.06.2019 21:55 16,8 C 82 % 1013,1 hPa 0,0 l/m 0,0 km/h (0 Bft) W-NW 286 13,7 C 16,8 C 0,0 km/h (0 Bft)
15.06.2019 21:50 17,0 C 82 % 1013,0 hPa 0,0 l/m 0,0 km/h (0 Bft) W-NW 286 13,9 C 17,0 C 0,0 km/h (0 Bft)
15.06.2019 21:45 17,3 C 81 % 1012,9 hPa 0,0 l/m 0,0 km/h (0 Bft) W-NW 286 14,0 C 17,3 C 0,0 km/h (0 Bft)
15.06.2019 21:40 17,7 C 79 % 1012,8 hPa 0,0 l/m 0,0 km/h (0 Bft) W-NW 286 14,0 C 17,7 C 0,0 km/h (0 Bft)
15.06.2019 21:35 18,0 C 77 % 1012,6 hPa 0,0 l/m 0,0 km/h (0 Bft) W-NW 286 13,9 C 18,0 C 0,0 km/h (0 Bft)
15.06.2019 21:30 18,3 C 77 % 1012,4 hPa 0,0 l/m 0,0 km/h (0 Bft) W-NW 286 14,2 C 18,3 C 0,0 km/h (0 Bft)
_ Min-Zeit 05:15 13:15 06:25 - 21:25 - - 05:15 05:15 21:25
Minimum _ 14,3 C 42 % 1007,7 hPa - 0,0 km/h (0 Bft) - - 12,2 C 14,3 C 0,0 km/h (0 Bft)
_ Max-Zeit 12:35 06:00 05:15 06:00 13:00 - - 09:05 12:40 06:05
Maximum _ 27,8 C 87 % 1015,6 hPa 0,0 l/m 16,8 km/h
S-SW (3 Bft)
- - 19,3 C 27,6 C 30,6 km/h
S (5 Bft)
Durchschnitt _ 21,6 C 69 % 1011,3 hPa #0,0 l/m 6,3 km/h (2 Bft) W-NW - 15,1 C 21,1 C 13,9 km/h (3 Bft)
Normalwerte entsprechend der Tabelle des DWD von 1961-1990 fr den Standort Annaberg-Buchholz, 650m ASL